createdAt,value
2019-03-13T00:01:43.645Z,3.30
2019-03-13T00:04:11.294Z,4.23
2019-03-13T00:06:38.778Z,2.90
2019-03-13T00:09:09.513Z,3.93
2019-03-13T00:11:37.330Z,4.03
2019-03-13T00:14:04.920Z,7.50
2019-03-13T00:16:32.400Z,5.17
2019-03-13T00:18:59.868Z,0.77
2019-03-13T00:21:27.452Z,0.63
2019-03-13T00:23:55.088Z,2.03
2019-03-13T00:26:22.715Z,1.73
2019-03-13T00:28:50.294Z,2.67
2019-03-13T00:31:17.900Z,1.50
2019-03-13T00:33:45.338Z,2.87
2019-03-13T00:36:12.828Z,0.80
2019-03-13T00:38:40.282Z,0.97
2019-03-13T00:41:07.748Z,1.93
2019-03-13T00:43:35.221Z,0.80
2019-03-13T00:46:02.726Z,4.60
2019-03-13T00:48:30.188Z,3.10
2019-03-13T00:50:58.672Z,3.53
2019-03-13T00:53:27.258Z,2.03
2019-03-13T00:55:54.762Z,2.80
2019-03-13T00:58:25.226Z,3.77
2019-03-13T01:01:17.274Z,2.87
2019-03-13T01:03:49.463Z,2.77
2019-03-13T01:06:20.898Z,3.47
2019-03-13T01:08:48.484Z,1.33
2019-03-13T01:11:16.072Z,2.87
2019-03-13T01:13:43.560Z,2.97
2019-03-13T01:16:12.930Z,3.10
2019-03-13T01:18:40.436Z,3.27
2019-03-13T01:21:08.140Z,2.20
2019-03-13T01:23:35.670Z,2.67
2019-03-13T01:26:04.714Z,3.90
2019-03-13T01:28:32.352Z,2.03
2019-03-13T01:31:08.412Z,2.80
2019-03-13T01:33:36.072Z,4.37
2019-03-13T01:36:05.373Z,3.47
2019-03-13T01:38:32.908Z,2.87
2019-03-13T01:41:00.502Z,3.53
2019-03-13T01:43:28.081Z,3.53
2019-03-13T01:45:55.656Z,5.07
2019-03-13T01:48:23.227Z,3.37
2019-03-13T01:50:50.656Z,6.67
2019-03-13T01:53:19.384Z,5.00
2019-03-13T01:55:46.893Z,6.83
2019-03-13T01:58:14.354Z,3.90
2019-03-13T02:00:43.019Z,4.13
2019-03-13T02:03:10.503Z,5.23
2019-03-13T02:05:38.146Z,5.17
2019-03-13T02:08:05.734Z,4.30
2019-03-13T02:10:33.264Z,3.50
2019-03-13T02:13:00.733Z,6.47
2019-03-13T02:15:28.247Z,5.03
2019-03-13T02:17:55.769Z,3.97
2019-03-13T02:20:23.756Z,6.17
2019-03-13T02:22:51.317Z,4.67
2019-03-13T02:25:18.866Z,5.67
2019-03-13T02:27:46.488Z,10.67
2019-03-13T02:30:14.414Z,6.80
2019-03-13T02:32:41.919Z,6.33
2019-03-13T02:35:09.408Z,6.67
2019-03-13T02:37:36.915Z,4.17
2019-03-13T02:40:17.056Z,8.63
2019-03-13T02:42:44.735Z,5.03
2019-03-13T02:45:12.697Z,6.33
2019-03-13T02:47:40.179Z,3.90
2019-03-13T02:50:10.316Z,7.37
2019-03-13T02:52:37.899Z,5.63
2019-03-13T02:55:05.925Z,8.20
2019-03-13T02:57:46.290Z,4.30
2019-03-13T03:00:15.299Z,7.20
2019-03-13T03:02:48.984Z,8.37
2019-03-13T03:05:16.450Z,5.73
2019-03-13T03:07:43.948Z,5.33
2019-03-13T03:10:11.815Z,6.67
2019-03-13T03:12:52.429Z,5.20
2019-03-13T03:15:21.248Z,8.20
2019-03-13T03:17:48.771Z,7.33
2019-03-13T03:20:17.842Z,6.40
2019-03-13T03:22:45.430Z,4.77
2019-03-13T03:25:33.662Z,4.93
2019-03-13T03:28:01.828Z,7.73
2019-03-13T03:30:32.141Z,8.50
2019-03-13T03:33:12.572Z,5.30
2019-03-13T03:35:40.172Z,5.73
2019-03-13T03:38:07.708Z,8.07
2019-03-13T03:40:36.533Z,6.67
2019-03-13T03:43:04.000Z,8.73
2019-03-13T03:45:31.535Z,5.77
2019-03-13T03:48:01.244Z,7.07
2019-03-13T03:50:28.799Z,5.40
2019-03-13T03:52:56.354Z,7.20
2019-03-13T03:55:23.908Z,5.63
2019-03-13T03:57:51.543Z,5.40
2019-03-13T04:00:19.285Z,7.43
2019-03-13T04:02:47.184Z,6.33
2019-03-13T04:05:14.863Z,9.20
2019-03-13T04:07:42.525Z,6.90
2019-03-13T04:10:10.451Z,5.67
2019-03-13T04:12:37.922Z,6.07
2019-03-13T04:15:05.627Z,7.07
2019-03-13T04:17:33.354Z,6.53
2019-03-13T04:20:00.943Z,8.17
2019-03-13T04:22:28.500Z,4.77
2019-03-13T04:25:10.089Z,6.00
2019-03-13T04:27:37.704Z,3.80
2019-03-13T04:30:05.728Z,5.67
2019-03-13T04:32:33.347Z,7.77
2019-03-13T04:35:01.047Z,9.30
2019-03-13T04:37:28.682Z,4.63
2019-03-13T04:39:56.268Z,7.03
2019-03-13T04:42:23.790Z,8.30
2019-03-13T04:44:51.307Z,7.27
2019-03-13T04:47:18.952Z,4.93
2019-03-13T04:49:46.583Z,7.27
2019-03-13T04:52:14.180Z,8.77
2019-03-13T04:54:41.777Z,5.73
2019-03-13T04:57:09.346Z,6.00
2019-03-13T04:59:37.009Z,9.67
2019-03-13T05:02:04.456Z,4.57
2019-03-13T05:04:31.990Z,6.23
2019-03-13T05:06:59.560Z,5.73
2019-03-13T05:09:35.244Z,5.80
2019-03-13T05:12:04.624Z,5.43
2019-03-13T05:14:32.881Z,6.13
2019-03-13T05:17:00.766Z,5.93
2019-03-13T05:19:28.212Z,5.53
2019-03-13T05:21:55.701Z,3.53
2019-03-13T05:24:23.188Z,6.77
2019-03-13T05:26:50.706Z,7.83
2019-03-13T05:29:18.192Z,5.93
2019-03-13T05:31:45.827Z,9.37
2019-03-13T05:34:15.750Z,8.77
2019-03-13T05:36:43.420Z,6.00
2019-03-13T05:39:10.980Z,8.63
2019-03-13T05:41:38.447Z,8.03
2019-03-13T05:44:06.092Z,8.67
2019-03-13T05:46:33.549Z,6.10
2019-03-13T05:49:01.078Z,6.23
2019-03-13T05:51:28.697Z,6.23
2019-03-13T05:53:56.244Z,9.37
2019-03-13T05:56:23.781Z,6.07
2019-03-13T05:58:51.250Z,6.73
2019-03-13T06:01:19.910Z,8.67
2019-03-13T06:03:47.375Z,6.83
2019-03-13T06:06:14.827Z,7.13
2019-03-13T06:08:42.476Z,5.13
2019-03-13T06:11:09.919Z,4.83
2019-03-13T06:13:37.535Z,9.47
2019-03-13T06:16:05.143Z,6.37
2019-03-13T06:18:32.662Z,9.97
2019-03-13T06:21:00.270Z,4.90
2019-03-13T06:23:27.892Z,6.53
2019-03-13T06:25:55.453Z,3.60
2019-03-13T06:28:23.001Z,7.90
2019-03-13T06:30:50.668Z,7.60
2019-03-13T06:33:18.388Z,7.33
2019-03-13T06:35:45.997Z,6.37
2019-03-13T06:38:13.598Z,6.00
2019-03-13T06:40:41.169Z,7.60
2019-03-13T06:43:09.836Z,6.07
2019-03-13T06:45:37.541Z,6.30
2019-03-13T06:48:05.207Z,6.73
2019-03-13T06:50:32.823Z,5.93
2019-03-13T06:53:00.383Z,7.83
2019-03-13T06:55:28.015Z,6.87
2019-03-13T06:57:55.665Z,8.83
2019-03-13T07:00:54.545Z,4.63
2019-03-13T07:03:41.553Z,5.63
2019-03-13T07:06:27.661Z,5.73
2019-03-13T07:09:20.565Z,9.50
2019-03-13T07:12:07.643Z,10.27
2019-03-13T07:14:53.578Z,5.60
2019-03-13T07:17:37.991Z,9.27
2019-03-13T07:20:21.877Z,7.10
2019-03-13T07:23:06.004Z,10.00
2019-03-13T07:25:45.837Z,9.63
2019-03-13T07:28:37.251Z,6.60
2019-03-13T07:31:31.344Z,8.23
2019-03-13T07:34:21.228Z,6.17
2019-03-13T07:37:11.028Z,11.70
2019-03-13T07:39:56.704Z,7.70
2019-03-13T07:42:46.108Z,10.00
2019-03-13T07:45:35.990Z,7.27
2019-03-13T07:48:21.819Z,10.13
2019-03-13T07:50:56.860Z,12.67
2019-03-13T07:54:08.797Z,5.40
2019-03-13T07:56:46.260Z,7.37
2019-03-13T07:59:36.408Z,8.73
2019-03-13T08:02:26.276Z,10.87
2019-03-13T08:05:03.084Z,5.60
2019-03-13T08:07:48.734Z,9.97
2019-03-13T08:10:50.906Z,8.13
2019-03-13T08:13:40.567Z,5.97
2019-03-13T08:16:26.361Z,8.87
2019-03-13T08:19:23.989Z,7.47
2019-03-13T08:22:12.789Z,8.60
2019-03-13T08:24:59.924Z,12.33
2019-03-13T08:27:47.938Z,6.60
2019-03-13T08:30:28.766Z,9.40
2019-03-13T08:33:10.044Z,9.47
2019-03-13T08:36:08.889Z,10.93
2019-03-13T08:39:01.742Z,7.00
2019-03-13T08:41:57.585Z,6.30
2019-03-13T08:45:08.718Z,12.07
2019-03-13T08:47:58.100Z,5.30
2019-03-13T08:50:36.290Z,8.70
2019-03-13T08:53:26.054Z,8.03
2019-03-13T08:56:02.333Z,8.30
2019-03-13T08:58:54.966Z,8.03
2019-03-13T09:01:32.471Z,10.30
2019-03-13T09:04:14.273Z,10.57
2019-03-13T09:07:04.373Z,7.50
2019-03-13T09:09:40.310Z,5.73
2019-03-13T09:12:16.760Z,8.27
2019-03-13T09:14:55.729Z,7.60
2019-03-13T09:17:41.732Z,9.03
2019-03-13T09:20:27.535Z,6.37
2019-03-13T09:23:13.596Z,6.50
2019-03-13T09:25:49.188Z,6.57
2019-03-13T09:28:40.410Z,4.10
2019-03-13T09:31:30.544Z,5.07
2019-03-13T09:34:20.390Z,6.97
2019-03-13T09:37:08.478Z,6.33
2019-03-13T09:40:07.687Z,6.37
2019-03-13T09:42:53.414Z,9.67
2019-03-13T09:45:40.826Z,10.63
2019-03-13T09:48:20.319Z,4.63
2019-03-13T09:50:57.254Z,6.53
2019-03-13T09:53:39.404Z,8.00
2019-03-13T09:59:21.699Z,7.63
2019-03-13T10:02:13.584Z,6.83
2019-03-13T10:04:48.101Z,6.03
2019-03-13T10:07:21.937Z,6.27
2019-03-13T10:10:21.455Z,7.93
2019-03-13T10:13:13.634Z,5.50
2019-03-13T10:16:03.591Z,6.40
2019-03-13T10:18:45.479Z,7.63
2019-03-13T10:21:38.844Z,4.70
2019-03-13T10:24:24.861Z,8.67
2019-03-13T10:27:10.494Z,5.33
2019-03-13T10:30:10.124Z,7.73
2019-03-13T10:33:09.305Z,8.10
2019-03-13T10:35:46.495Z,5.30
2019-03-13T10:38:24.481Z,6.30
2019-03-13T10:41:13.162Z,4.63
2019-03-13T10:44:34.845Z,6.03
2019-03-13T10:47:14.954Z,7.27
2019-03-13T10:49:59.624Z,5.37
2019-03-13T10:52:45.433Z,8.20
2019-03-13T10:55:20.538Z,7.43
2019-03-13T10:58:10.377Z,6.67
2019-03-13T11:00:49.869Z,6.27
2019-03-13T11:03:35.356Z,6.30
2019-03-13T11:06:54.059Z,5.07
2019-03-13T11:09:42.134Z,6.03
2019-03-13T11:12:26.032Z,3.93
2019-03-13T11:15:25.473Z,4.63
2019-03-13T11:18:11.512Z,5.53
2019-03-13T11:21:07.740Z,4.57
2019-03-13T11:23:44.100Z,4.90
2019-03-13T11:26:40.928Z,4.73
2019-03-13T11:29:31.031Z,5.10
2019-03-13T11:32:13.530Z,4.67
2019-03-13T11:35:04.296Z,3.40
2019-03-13T11:37:45.838Z,3.70
2019-03-13T11:40:39.025Z,2.83
2019-03-13T11:43:34.384Z,2.60
2019-03-13T11:46:40.713Z,3.53
2019-03-13T11:49:43.736Z,3.67
2019-03-13T11:52:21.382Z,1.83
2019-03-13T11:55:09.035Z,3.23
2019-03-13T11:57:55.648Z,3.83
2019-03-13T12:00:41.398Z,3.13
2019-03-13T12:03:48.718Z,2.50
2019-03-13T12:06:25.648Z,4.10
2019-03-13T12:09:17.220Z,2.37
2019-03-13T12:12:22.467Z,5.10
2019-03-13T12:15:14.066Z,1.60
2019-03-13T12:17:48.501Z,1.93
2019-03-13T12:20:44.603Z,3.07
2019-03-13T12:23:40.480Z,4.67
2019-03-13T12:26:26.181Z,3.83
2019-03-13T12:29:16.251Z,3.40
2019-03-13T12:32:12.730Z,2.57
2019-03-13T12:34:59.756Z,1.50
2019-03-13T12:37:53.310Z,3.37
2019-03-13T12:40:44.601Z,4.47
2019-03-13T12:43:30.547Z,1.50
2019-03-13T12:46:17.657Z,3.73
2019-03-13T12:49:07.533Z,1.83
2019-03-13T12:51:57.350Z,2.47
2019-03-13T12:54:43.415Z,1.63
2019-03-13T12:57:28.915Z,2.60
2019-03-13T13:00:18.959Z,2.37
2019-03-13T13:03:00.063Z,2.47
2019-03-13T13:05:48.633Z,3.27
2019-03-13T13:08:24.941Z,2.37
2019-03-13T13:11:03.632Z,1.83
2019-03-13T13:13:44.050Z,2.37
2019-03-13T13:16:24.140Z,4.53
2019-03-13T13:18:54.753Z,3.20
2019-03-13T13:21:22.888Z,2.37
2019-03-13T13:23:50.421Z,2.70
2019-03-13T13:26:18.095Z,3.53
2019-03-13T13:28:45.651Z,2.07
2019-03-13T13:31:13.415Z,2.73
2019-03-13T13:33:41.043Z,1.37
2019-03-13T13:36:08.737Z,3.20
2019-03-13T13:38:36.391Z,1.77
2019-03-13T13:41:04.225Z,0.67
2019-03-13T13:43:31.803Z,3.20
2019-03-13T13:46:03.992Z,1.10
2019-03-13T13:48:31.701Z,2.37
2019-03-13T13:51:00.724Z,2.00
2019-03-13T13:53:28.292Z,2.23
2019-03-13T13:55:55.798Z,1.83
2019-03-13T13:58:23.292Z,2.10
2019-03-13T14:00:50.917Z,1.23
2019-03-13T14:03:18.515Z,3.37
2019-03-13T14:05:46.142Z,1.67
2019-03-13T14:08:13.790Z,3.50
2019-03-13T14:10:41.382Z,2.67
2019-03-13T14:13:09.077Z,1.73
2019-03-13T14:15:36.689Z,1.33
2019-03-13T14:18:04.305Z,2.40
2019-03-13T14:20:31.915Z,1.37
2019-03-13T14:22:59.479Z,1.87
2019-03-13T14:25:26.981Z,2.40
2019-03-13T14:27:55.800Z,2.33
2019-03-13T14:30:23.372Z,4.93
2019-03-13T14:32:51.026Z,1.27
2019-03-13T14:35:18.501Z,3.07
2019-03-13T14:37:46.035Z,2.17
2019-03-13T14:40:13.799Z,2.03
2019-03-13T14:42:41.510Z,2.10
2019-03-13T14:45:09.316Z,2.17
2019-03-13T14:47:37.348Z,4.63
2019-03-13T14:50:06.114Z,3.33
2019-03-13T14:52:33.869Z,2.30
2019-03-13T14:55:02.753Z,2.17
2019-03-13T14:57:30.407Z,3.53
2019-03-13T14:59:58.091Z,3.23
2019-03-13T15:02:25.778Z,3.97
2019-03-13T15:04:53.412Z,3.33
2019-03-13T15:07:21.010Z,3.23
2019-03-13T15:09:48.746Z,5.50
2019-03-13T15:12:16.572Z,4.00
2019-03-13T15:14:44.246Z,3.90
2019-03-13T15:17:12.010Z,3.17
2019-03-13T15:19:41.372Z,1.13
2019-03-13T15:22:09.036Z,2.37
2019-03-13T15:24:37.755Z,2.00
2019-03-13T15:27:05.398Z,2.50
2019-03-13T15:29:32.941Z,1.17
2019-03-13T15:32:00.625Z,1.43
2019-03-13T15:34:28.229Z,2.43
2019-03-13T15:36:55.902Z,1.83
2019-03-13T15:39:26.501Z,2.60
2019-03-13T15:41:54.072Z,5.43
2019-03-13T15:44:21.696Z,2.83
2019-03-13T15:46:49.436Z,4.37
2019-03-13T15:49:17.066Z,3.27
2019-03-13T15:51:44.536Z,2.67
2019-03-13T15:54:12.067Z,2.67
2019-03-13T15:56:39.570Z,2.37
2019-03-13T15:59:07.103Z,2.53
2019-03-13T16:01:35.795Z,3.60
2019-03-13T16:04:03.425Z,5.13
2019-03-13T16:06:31.129Z,2.40
2019-03-13T16:08:58.681Z,2.20
2019-03-13T16:11:26.237Z,1.40
2019-03-13T16:13:53.746Z,1.53
2019-03-13T16:16:21.393Z,1.73
2019-03-13T16:18:50.346Z,2.30
2019-03-13T16:21:17.942Z,2.10
2019-03-13T16:23:45.568Z,2.40
2019-03-13T16:26:13.202Z,2.20
2019-03-13T16:28:40.846Z,1.73
2019-03-13T16:31:10.625Z,3.00
2019-03-13T16:33:38.280Z,3.57
2019-03-13T16:36:06.026Z,2.47
2019-03-13T16:38:33.645Z,2.03
2019-03-13T16:41:01.235Z,1.10
2019-03-13T16:43:30.100Z,3.10
2019-03-13T16:45:59.401Z,2.63
2019-03-13T16:48:27.022Z,2.20
2019-03-13T16:50:55.846Z,1.40
2019-03-13T16:53:23.510Z,2.77
2019-03-13T16:55:51.065Z,1.00
2019-03-13T16:58:18.624Z,1.10
2019-03-13T17:00:46.304Z,3.97
2019-03-13T17:03:14.995Z,1.20
2019-03-13T17:05:42.607Z,1.10
2019-03-13T17:08:10.321Z,1.07
2019-03-13T17:10:37.802Z,1.67
2019-03-13T17:13:05.875Z,3.23
2019-03-13T17:15:34.880Z,1.83
2019-03-13T17:18:02.688Z,3.37
2019-03-13T17:20:31.582Z,4.73
2019-03-13T17:22:59.333Z,2.50
2019-03-13T17:25:26.976Z,2.20
2019-03-13T17:27:54.712Z,3.90
2019-03-13T17:30:23.946Z,4.67
2019-03-13T17:32:51.635Z,4.63
2019-03-13T17:35:19.284Z,1.90
2019-03-13T17:37:47.146Z,3.83
2019-03-13T17:40:16.623Z,7.33
2019-03-13T17:42:44.170Z,4.77
2019-03-13T17:45:14.084Z,3.30
2019-03-13T17:47:41.676Z,3.50
2019-03-13T17:50:11.381Z,2.73
2019-03-13T17:52:38.946Z,4.80
2019-03-13T17:55:07.397Z,2.70
2019-03-13T17:57:35.045Z,2.40
2019-03-13T18:00:02.941Z,2.27
2019-03-13T18:02:30.926Z,3.13
2019-03-13T18:04:58.467Z,2.90
2019-03-13T18:07:26.748Z,1.77
2019-03-13T18:09:54.514Z,3.37
2019-03-13T18:12:22.123Z,2.77
2019-03-13T18:14:50.026Z,3.50
2019-03-13T18:17:18.778Z,2.00
2019-03-13T18:19:50.131Z,2.33
2019-03-13T18:22:17.791Z,1.70
2019-03-13T18:24:45.455Z,3.97
2019-03-13T18:27:14.272Z,2.03
2019-03-13T18:29:42.426Z,3.93
2019-03-13T18:32:10.050Z,2.97
2019-03-13T18:34:37.733Z,1.30
2019-03-13T18:37:06.404Z,2.77
2019-03-13T18:39:34.134Z,2.20
2019-03-13T18:42:01.647Z,3.03
2019-03-13T18:44:29.440Z,3.90
2019-03-13T18:46:57.058Z,1.60
2019-03-13T18:49:24.565Z,2.43
2019-03-13T18:51:52.311Z,4.53
2019-03-13T18:54:19.915Z,3.70
2019-03-13T18:56:49.860Z,3.50
2019-03-13T18:59:17.465Z,3.97
2019-03-13T19:01:45.044Z,4.30
2019-03-13T19:04:13.866Z,4.40
2019-03-13T19:06:41.644Z,6.57
2019-03-13T19:09:09.415Z,6.20
2019-03-13T19:11:38.974Z,11.00
2019-03-13T19:14:06.564Z,11.07
2019-03-13T19:16:34.216Z,8.63
2019-03-13T19:19:01.851Z,6.50
2019-03-13T19:21:29.498Z,5.70
2019-03-13T19:23:58.475Z,4.97
2019-03-13T19:26:26.210Z,7.00
2019-03-13T19:28:53.864Z,6.67
2019-03-13T19:31:22.179Z,6.40
2019-03-13T19:33:50.444Z,6.93
2019-03-13T19:36:22.567Z,9.53
2019-03-13T19:38:55.344Z,9.33
2019-03-13T19:41:36.044Z,10.27
2019-03-13T19:44:04.025Z,9.87
2019-03-13T19:46:32.280Z,7.77
2019-03-13T19:49:00.073Z,11.20
2019-03-13T19:51:29.158Z,9.00
2019-03-13T19:53:56.782Z,15.00
2019-03-13T19:56:24.503Z,10.73
2019-03-13T19:58:52.303Z,8.07
2019-03-13T20:01:20.142Z,9.73
2019-03-13T20:03:55.054Z,8.20
2019-03-13T20:06:17.633Z,8.67
2019-03-13T20:08:45.471Z,7.47
2019-03-13T20:11:13.322Z,7.77
2019-03-13T20:13:41.390Z,7.93
2019-03-13T20:16:09.427Z,10.87
2019-03-13T20:18:37.147Z,10.43
2019-03-13T20:21:04.845Z,19.03
2019-03-13T20:23:32.805Z,11.07
2019-03-13T20:26:00.418Z,8.07
2019-03-13T20:28:28.260Z,8.70
2019-03-13T20:30:56.400Z,11.10
2019-03-13T20:33:24.393Z,12.10
2019-03-13T20:35:51.986Z,10.30
2019-03-13T20:38:19.767Z,12.33
2019-03-13T20:40:50.630Z,10.27
2019-03-13T20:43:19.519Z,8.03
2019-03-13T20:45:48.318Z,10.33
2019-03-13T20:48:15.946Z,9.83
2019-03-13T20:50:43.710Z,7.80
2019-03-13T20:53:11.355Z,6.57
2019-03-13T20:55:38.973Z,8.07
2019-03-13T20:58:06.666Z,7.07
2019-03-13T21:00:34.950Z,6.03
2019-03-13T21:03:03.976Z,10.07
2019-03-13T21:05:31.756Z,8.60
2019-03-13T21:07:59.495Z,9.53
2019-03-13T21:10:27.293Z,9.70
2019-03-13T21:12:56.723Z,8.20
2019-03-13T21:15:24.743Z,8.50
2019-03-13T21:17:52.417Z,6.27
2019-03-13T21:20:20.562Z,8.73
2019-03-13T21:22:48.136Z,9.33
2019-03-13T21:25:16.827Z,9.23
2019-03-13T21:27:47.582Z,12.93
2019-03-13T21:30:19.394Z,10.33
2019-03-13T21:32:47.027Z,9.53
2019-03-13T21:35:14.677Z,8.43
2019-03-13T21:37:42.368Z,9.03
2019-03-13T21:40:10.818Z,11.83
2019-03-13T21:42:38.320Z,7.67
2019-03-13T21:45:06.736Z,7.53
2019-03-13T21:47:34.381Z,7.83
2019-03-13T21:50:02.538Z,7.23
2019-03-13T21:52:32.260Z,8.67
2019-03-13T21:54:59.872Z,7.90
2019-03-13T21:57:27.458Z,8.17
2019-03-13T21:59:55.070Z,8.13
2019-03-13T22:02:32.177Z,13.93
2019-03-13T22:04:52.135Z,10.63
2019-03-13T22:07:19.977Z,11.97
2019-03-13T22:09:48.154Z,8.80
2019-03-13T22:12:15.700Z,9.40
2019-03-13T22:14:43.536Z,6.77
2019-03-13T22:17:12.291Z,10.80
2019-03-13T22:19:40.196Z,9.40
2019-03-13T22:22:07.860Z,9.50
2019-03-13T22:24:35.385Z,10.27
2019-03-13T22:27:03.056Z,11.60
2019-03-13T22:29:30.789Z,15.23
2019-03-13T22:31:58.316Z,8.57
2019-03-13T22:34:25.922Z,15.10
2019-03-13T22:36:54.712Z,9.97
2019-03-13T22:39:22.311Z,10.73
2019-03-13T22:41:49.923Z,10.47
2019-03-13T22:44:17.600Z,16.43
2019-03-13T22:46:45.132Z,13.10
2019-03-13T22:49:12.892Z,10.03
2019-03-13T22:51:42.191Z,8.43
2019-03-13T22:54:09.711Z,10.53
2019-03-13T22:56:37.304Z,13.67
2019-03-13T22:59:04.853Z,15.50
2019-03-13T23:01:32.455Z,13.33
2019-03-13T23:04:01.634Z,9.63
2019-03-13T23:06:29.485Z,12.03
2019-03-13T23:08:57.227Z,14.93
2019-03-13T23:13:52.889Z,10.07
2019-03-13T23:16:21.497Z,12.97
2019-03-13T23:18:49.851Z,11.97
2019-03-13T23:21:17.473Z,17.10
2019-03-13T23:23:44.968Z,10.43
2019-03-13T23:26:12.585Z,11.80
2019-03-13T23:28:40.223Z,19.93
2019-03-13T23:31:07.903Z,13.90
2019-03-13T23:33:35.555Z,10.00
2019-03-13T23:36:03.178Z,12.87
2019-03-13T23:38:30.801Z,14.60
2019-03-13T23:40:58.689Z,13.93
2019-03-13T23:43:26.361Z,15.43
2019-03-13T23:45:53.824Z,11.50
2019-03-13T23:48:21.362Z,17.57
2019-03-13T23:50:48.914Z,18.77
2019-03-13T23:53:16.531Z,14.20
2019-03-13T23:55:44.123Z,12.03
2019-03-13T23:58:11.731Z,14.87
